createdAt,value
2022-09-23T00:00:35.740Z,14.39
2022-09-23T00:01:35.823Z,14.32
2022-09-23T00:02:35.761Z,14.27
2022-09-23T00:03:35.691Z,14.28
2022-09-23T00:04:35.683Z,14.29
2022-09-23T00:05:35.669Z,14.29
2022-09-23T00:06:35.673Z,14.29
2022-09-23T00:07:35.652Z,14.27
2022-09-23T00:08:35.634Z,14.28
2022-09-23T00:09:35.624Z,14.32
2022-09-23T00:10:35.615Z,14.29
2022-09-23T00:11:35.632Z,14.29
2022-09-23T00:12:35.584Z,14.24
2022-09-23T00:13:35.595Z,14.21
2022-09-23T00:14:35.569Z,14.18
2022-09-23T00:15:35.557Z,14.17
2022-09-23T00:16:35.580Z,14.17
2022-09-23T00:17:35.545Z,14.14
2022-09-23T00:18:37.232Z,14.17
2022-09-23T00:19:35.514Z,14.06
2022-09-23T00:20:35.504Z,13.97
2022-09-23T00:21:35.515Z,13.91
2022-09-23T00:22:35.497Z,13.88
2022-09-23T00:23:35.476Z,13.87
2022-09-23T00:24:35.466Z,13.88
2022-09-23T00:25:35.467Z,13.87
2022-09-23T00:26:35.457Z,13.87
2022-09-23T00:27:35.455Z,13.88
2022-09-23T00:28:35.434Z,13.92
2022-09-23T00:29:35.415Z,13.95
2022-09-23T00:30:35.504Z,13.99
2022-09-23T00:31:35.406Z,13.95
2022-09-23T00:32:35.389Z,13.92
2022-09-23T00:33:35.389Z,13.95
2022-09-23T00:34:35.367Z,13.89
2022-09-23T00:35:35.351Z,13.84
2022-09-23T00:36:35.367Z,13.89
2022-09-23T00:37:35.328Z,13.91
2022-09-23T00:38:35.323Z,13.92
2022-09-23T00:39:35.308Z,13.88
2022-09-23T00:40:35.365Z,13.84
2022-09-23T00:41:35.310Z,13.79
2022-09-23T00:42:35.299Z,13.77
2022-09-23T00:43:35.259Z,13.81
2022-09-23T00:44:35.239Z,13.81
2022-09-23T00:45:35.257Z,13.79
2022-09-23T00:46:35.347Z,13.81
2022-09-23T00:47:35.239Z,13.81
2022-09-23T00:48:35.232Z,13.84
2022-09-23T00:49:35.202Z,13.78
2022-09-23T00:50:35.215Z,13.81
2022-09-23T00:51:35.212Z,13.78
2022-09-23T00:52:35.160Z,13.73
2022-09-23T00:53:35.168Z,13.79
2022-09-23T00:54:35.160Z,13.84
2022-09-23T00:55:35.139Z,13.85
2022-09-23T00:56:35.143Z,13.91
2022-09-23T00:57:35.129Z,13.88
2022-09-23T00:58:35.101Z,13.89
2022-09-23T00:59:35.101Z,13.88
2022-09-23T01:00:35.122Z,13.87
2022-09-23T01:01:35.267Z,13.85
2022-09-23T01:02:35.113Z,13.88
2022-09-23T01:03:35.061Z,13.81
2022-09-23T01:04:35.057Z,13.79
2022-09-23T01:05:35.032Z,13.84
2022-09-23T01:06:35.031Z,13.84
2022-09-23T01:07:35.002Z,13.85
2022-09-23T01:08:34.993Z,13.84
2022-09-23T01:09:35.002Z,13.82
2022-09-23T01:10:34.983Z,13.79
2022-09-23T01:11:34.996Z,13.78
2022-09-23T01:12:34.974Z,13.82
2022-09-23T01:13:34.943Z,13.85
2022-09-23T01:14:34.931Z,13.88
2022-09-23T01:15:34.938Z,13.88
2022-09-23T01:16:34.960Z,13.81
2022-09-23T01:17:34.904Z,13.70
2022-09-23T01:18:34.888Z,13.69
2022-09-23T01:19:34.905Z,13.60
2022-09-23T01:20:34.875Z,13.60
2022-09-23T01:21:34.855Z,13.62
2022-09-23T01:22:34.836Z,13.62
2022-09-23T01:23:34.826Z,13.62
2022-09-23T01:24:34.829Z,13.62
2022-09-23T01:25:34.814Z,13.67
2022-09-23T01:26:34.816Z,13.64
2022-09-23T01:27:34.795Z,13.64
2022-09-23T01:28:34.775Z,13.64
2022-09-23T01:29:34.768Z,13.66
2022-09-23T01:30:34.840Z,13.64
2022-09-23T01:31:34.758Z,13.55
2022-09-23T01:32:34.739Z,13.51
2022-09-23T01:33:34.726Z,13.49
2022-09-23T01:34:34.708Z,13.52
2022-09-23T01:35:34.707Z,13.59
2022-09-23T01:36:34.707Z,13.62
2022-09-23T01:37:34.675Z,13.66
2022-09-23T01:38:34.669Z,13.55
2022-09-23T01:39:34.657Z,13.54
2022-09-23T01:40:34.723Z,13.49
2022-09-23T01:41:34.648Z,13.49
2022-09-23T01:42:34.620Z,13.51
2022-09-23T01:43:34.608Z,13.52
2022-09-23T01:44:34.609Z,13.52
2022-09-23T01:45:34.590Z,13.54
2022-09-23T01:46:34.600Z,13.52
2022-09-23T01:47:34.571Z,13.57
2022-09-23T01:48:34.596Z,13.64
2022-09-23T01:49:34.557Z,13.63
2022-09-23T01:50:34.546Z,13.60
2022-09-23T01:51:34.544Z,13.57
2022-09-23T01:52:34.520Z,13.49
2022-09-23T01:53:34.510Z,13.51
2022-09-23T01:54:34.503Z,13.51
2022-09-23T01:55:34.532Z,13.48
2022-09-23T01:56:34.490Z,13.46
2022-09-23T01:57:34.462Z,13.46
2022-09-23T01:58:34.453Z,13.49
2022-09-23T01:59:34.463Z,13.49
2022-09-23T02:00:34.431Z,13.48
2022-09-23T02:01:34.498Z,13.48
2022-09-23T02:02:34.479Z,13.49
2022-09-23T02:03:34.391Z,13.49
2022-09-23T02:04:34.381Z,13.52
2022-09-23T02:05:34.374Z,13.45
2022-09-23T02:06:34.399Z,13.41
2022-09-23T02:07:34.354Z,13.41
2022-09-23T02:08:34.351Z,13.45
2022-09-23T02:09:34.333Z,13.44
2022-09-23T02:10:34.323Z,13.41
2022-09-23T02:11:34.323Z,13.36
2022-09-23T02:12:34.302Z,13.26
2022-09-23T02:13:34.273Z,13.28
2022-09-23T02:14:34.292Z,13.29
2022-09-23T02:15:34.263Z,13.30
2022-09-23T02:16:34.415Z,13.36
2022-09-23T02:17:34.254Z,13.39
2022-09-23T02:18:34.243Z,13.42
2022-09-23T02:19:36.879Z,13.36
2022-09-23T02:20:34.231Z,13.42
2022-09-23T02:21:34.225Z,13.36
2022-09-23T02:22:34.193Z,13.38
2022-09-23T02:23:34.186Z,13.42
2022-09-23T02:24:34.175Z,13.42
2022-09-23T02:25:34.158Z,13.44
2022-09-23T02:26:34.158Z,13.42
2022-09-23T02:27:34.140Z,13.41
2022-09-23T02:28:34.132Z,13.39
2022-09-23T02:29:34.116Z,13.38
2022-09-23T02:30:34.115Z,13.39
2022-09-23T02:31:34.139Z,13.38
2022-09-23T02:32:34.095Z,13.38
2022-09-23T02:33:34.079Z,13.38
2022-09-23T02:34:34.066Z,13.38
2022-09-23T02:35:34.049Z,13.41
2022-09-23T02:36:34.065Z,13.39
2022-09-23T02:37:34.046Z,13.41
2022-09-23T02:38:34.018Z,13.39
2022-09-23T02:39:33.998Z,13.38
2022-09-23T02:40:34.048Z,13.36
2022-09-23T02:41:33.997Z,13.38
2022-09-23T02:42:33.975Z,13.39
2022-09-23T02:43:33.960Z,13.33
2022-09-23T02:44:33.947Z,13.30
2022-09-23T02:45:33.982Z,13.30
2022-09-23T02:46:33.947Z,13.36
2022-09-23T02:47:33.919Z,13.36
2022-09-23T02:48:33.908Z,13.33
2022-09-23T02:49:33.895Z,13.33
2022-09-23T02:50:33.901Z,13.38
2022-09-23T02:51:33.897Z,13.33
2022-09-23T02:52:33.869Z,13.30
2022-09-23T02:53:33.877Z,13.32
2022-09-23T02:54:33.851Z,13.36
2022-09-23T02:55:33.839Z,13.29
2022-09-23T02:56:33.838Z,13.29
2022-09-23T02:57:33.817Z,13.26
2022-09-23T02:58:33.807Z,13.23
2022-09-23T02:59:33.808Z,13.26
2022-09-23T03:00:33.780Z,13.23
2022-09-23T03:01:33.858Z,13.20
2022-09-23T03:02:33.787Z,13.22
2022-09-23T03:03:33.749Z,13.14
2022-09-23T03:04:33.743Z,13.15
2022-09-23T03:05:33.727Z,13.17
2022-09-23T03:06:33.728Z,13.17
2022-09-23T03:07:33.710Z,13.19
2022-09-23T03:08:33.690Z,13.17
2022-09-23T03:09:33.683Z,13.10
2022-09-23T03:10:33.681Z,13.08
2022-09-23T03:11:33.681Z,13.11
2022-09-23T03:12:33.664Z,13.08
2022-09-23T03:13:33.643Z,13.07
2022-09-23T03:14:33.630Z,13.07
2022-09-23T03:15:33.611Z,13.04
2022-09-23T03:16:33.753Z,13.01
2022-09-23T03:17:33.612Z,12.96
2022-09-23T03:18:33.592Z,12.96
2022-09-23T03:19:33.587Z,12.97
2022-09-23T03:20:33.565Z,12.97
2022-09-23T03:21:33.564Z,12.93
2022-09-23T03:22:33.544Z,12.97
2022-09-23T03:23:33.525Z,12.96
2022-09-23T03:24:33.526Z,13.00
2022-09-23T03:25:33.503Z,12.96
2022-09-23T03:26:33.502Z,12.96
2022-09-23T03:27:33.489Z,12.93
2022-09-23T03:28:33.473Z,12.95
2022-09-23T03:29:33.463Z,12.95
2022-09-23T03:30:33.464Z,12.95
2022-09-23T03:31:33.514Z,12.90
2022-09-23T03:32:33.433Z,12.93
2022-09-23T03:33:33.423Z,12.92
2022-09-23T03:34:33.424Z,12.90
2022-09-23T03:35:33.395Z,12.89
2022-09-23T03:36:33.404Z,12.85
2022-09-23T03:37:33.374Z,12.82
2022-09-23T03:38:33.364Z,12.79
2022-09-23T03:39:33.364Z,12.75
2022-09-23T03:40:33.396Z,12.74
2022-09-23T03:41:33.345Z,12.74
2022-09-23T03:42:33.334Z,12.70
2022-09-23T03:43:38.070Z,12.65
2022-09-23T03:44:34.296Z,12.65
2022-09-23T03:45:33.292Z,12.67
2022-09-23T03:46:33.302Z,12.67
2022-09-23T03:47:33.267Z,12.59
2022-09-23T03:48:33.266Z,12.54
2022-09-23T03:49:33.255Z,12.52
2022-09-23T03:50:33.245Z,12.45
2022-09-23T03:51:33.235Z,12.41
2022-09-23T03:52:33.207Z,12.39
2022-09-23T03:53:33.205Z,12.41
2022-09-23T03:54:33.208Z,12.39
2022-09-23T03:55:33.196Z,12.38
2022-09-23T03:56:33.197Z,12.39
2022-09-23T03:57:33.157Z,12.38
2022-09-23T03:58:33.159Z,12.32
2022-09-23T03:59:33.147Z,12.37
2022-09-23T04:00:33.178Z,12.35
2022-09-23T04:01:33.127Z,12.34
2022-09-23T04:02:33.152Z,12.37
2022-09-23T04:03:33.098Z,12.37
2022-09-23T04:04:33.094Z,12.35
2022-09-23T04:05:33.066Z,12.39
2022-09-23T04:06:33.081Z,12.39
2022-09-23T04:07:33.061Z,12.34
2022-09-23T04:08:33.699Z,12.31
2022-09-23T04:09:33.028Z,12.31
2022-09-23T04:10:33.029Z,12.29
2022-09-23T04:11:33.022Z,12.31
2022-09-23T04:12:33.008Z,12.37
2022-09-23T04:13:32.990Z,12.39
2022-09-23T04:14:32.979Z,12.37
2022-09-23T04:15:32.969Z,12.39
2022-09-23T04:16:33.050Z,12.39
2022-09-23T04:17:32.949Z,12.38
2022-09-23T04:19:51.917Z,12.37
2022-09-23T04:20:51.794Z,12.35
2022-09-23T04:21:51.786Z,12.32
2022-09-23T04:25:13.225Z,12.35
2022-09-23T04:26:07.823Z,12.35
2022-09-23T04:27:07.825Z,12.34
2022-09-23T04:28:07.774Z,12.38
2022-09-23T04:29:07.874Z,12.38
2022-09-23T04:30:36.885Z,12.38
2022-09-23T04:31:38.972Z,12.37
2022-09-23T04:32:36.623Z,12.37
2022-09-23T04:33:07.715Z,12.32
2022-09-23T04:35:26.738Z,12.29
2022-09-23T04:36:26.625Z,12.28
2022-09-23T04:38:45.634Z,12.27
2022-09-23T04:39:45.466Z,12.27
2022-09-23T04:40:45.517Z,12.31
2022-09-23T04:41:45.447Z,12.28
2022-09-23T04:42:45.424Z,12.28
2022-09-23T04:43:45.448Z,12.27
2022-09-23T04:44:45.444Z,12.29
2022-09-23T04:45:45.377Z,12.29
2022-09-23T04:46:45.422Z,12.29
2022-09-23T04:47:45.426Z,12.32
2022-09-23T04:48:45.382Z,12.32
2022-09-23T04:49:45.347Z,12.31
2022-09-23T04:50:45.346Z,12.31
2022-09-23T04:51:45.328Z,12.28
2022-09-23T04:52:45.287Z,12.29
2022-09-23T04:53:45.244Z,12.32
2022-09-23T04:54:45.250Z,12.31
2022-09-23T04:55:45.276Z,12.27
2022-09-23T04:56:45.314Z,12.27
2022-09-23T04:57:45.215Z,12.21
2022-09-23T04:58:45.197Z,12.23
2022-09-23T04:59:45.208Z,12.23
2022-09-23T05:00:45.234Z,12.23
2022-09-23T05:01:45.214Z,12.21
2022-09-23T05:02:45.149Z,12.19
2022-09-23T05:03:45.140Z,12.20
2022-09-23T05:04:45.128Z,12.19
2022-09-23T05:05:45.141Z,12.20
2022-09-23T05:06:45.193Z,12.20
2022-09-23T05:07:45.122Z,12.19
2022-09-23T05:08:45.110Z,12.14
2022-09-23T05:09:45.077Z,12.14
2022-09-23T05:10:45.100Z,12.13
2022-09-23T05:11:45.077Z,12.14
2022-09-23T05:12:45.037Z,12.16
2022-09-23T05:13:45.047Z,12.16
2022-09-23T05:14:45.059Z,12.13
2022-09-23T05:15:45.027Z,12.13
2022-09-23T05:16:45.034Z,12.13
2022-09-23T05:17:44.999Z,12.14
2022-09-23T05:18:45.006Z,12.16
2022-09-23T05:19:44.968Z,12.12
2022-09-23T05:20:44.980Z,12.14
2022-09-23T05:21:44.970Z,12.12
2022-09-23T05:22:44.939Z,12.12
2022-09-23T05:23:44.960Z,12.12
2022-09-23T05:24:44.928Z,12.09
2022-09-23T05:25:44.911Z,12.10
2022-09-23T05:26:44.917Z,12.10
2022-09-23T05:27:44.897Z,12.12
2022-09-23T05:28:44.881Z,12.13
2022-09-23T05:29:44.880Z,12.12
2022-09-23T05:30:44.875Z,12.10
2022-09-23T05:31:44.910Z,12.07
2022-09-23T05:32:44.840Z,12.09
2022-09-23T05:33:44.858Z,12.07
2022-09-23T05:34:44.818Z,12.07
2022-09-23T05:35:44.842Z,12.09
2022-09-23T05:36:44.821Z,12.07
2022-09-23T05:37:44.821Z,12.07
2022-09-23T05:38:44.813Z,12.05
2022-09-23T05:39:45.037Z,12.05
2022-09-23T05:40:50.825Z,12.07
2022-09-23T05:41:44.759Z,12.10
2022-09-23T05:42:47.857Z,12.09
2022-09-23T05:43:46.460Z,12.12
2022-09-23T05:44:47.385Z,12.13
2022-09-23T05:45:44.711Z,12.16
2022-09-23T05:46:45.512Z,12.16
2022-09-23T05:47:47.354Z,12.14
2022-09-23T05:48:45.473Z,12.14
2022-09-23T05:49:59.504Z,12.16
2022-09-23T05:50:56.945Z,12.13
2022-09-23T05:51:48.735Z,12.14
2022-09-23T05:52:54.456Z,12.19
2022-09-23T05:56:21.510Z,12.24
2022-09-23T06:02:02.394Z,12.34
2022-09-23T06:03:02.950Z,12.38
2022-09-23T06:03:57.128Z,12.38
2022-09-23T06:04:57.934Z,12.42
2022-09-23T06:05:57.125Z,12.45
2022-09-23T06:07:00.280Z,12.45
2022-09-23T06:07:59.878Z,12.46
2022-09-23T06:08:59.622Z,12.45
2022-09-23T06:09:58.815Z,12.41
2022-09-23T06:10:56.983Z,12.42
2022-09-23T06:11:57.058Z,12.47
2022-09-23T06:12:58.793Z,12.52
2022-09-23T06:13:58.841Z,12.57
2022-09-23T06:14:57.014Z,12.60
2022-09-23T06:15:56.926Z,12.62
2022-09-23T06:16:59.620Z,12.65
2022-09-23T06:18:00.056Z,12.68
2022-09-23T06:19:01.758Z,12.68
2022-09-23T06:19:57.910Z,12.70
2022-09-23T06:20:58.114Z,12.71
2022-09-23T06:21:56.939Z,12.74
2022-09-23T06:22:59.777Z,12.75
2022-09-23T06:23:57.312Z,12.79
2022-09-23T06:24:56.826Z,12.75
2022-09-23T06:25:57.598Z,12.78
2022-09-23T06:26:58.565Z,12.83
2022-09-23T06:27:57.588Z,12.82
2022-09-23T06:28:56.771Z,12.83
2022-09-23T06:29:56.755Z,12.82
2022-09-23T06:30:59.458Z,12.79
2022-09-23T06:31:56.873Z,12.86
2022-09-23T06:32:57.527Z,12.90
2022-09-23T06:34:12.792Z,12.95
2022-09-23T06:34:59.645Z,13.03
2022-09-23T06:35:59.646Z,13.08
2022-09-23T06:36:59.351Z,13.19
2022-09-23T06:37:57.467Z,13.19
2022-09-23T06:38:56.676Z,13.25
2022-09-23T06:39:57.496Z,13.29
2022-09-23T06:40:56.626Z,13.22
2022-09-23T06:41:56.627Z,13.23
2022-09-23T06:42:57.429Z,13.23
2022-09-23T06:44:17.736Z,13.25
2022-09-23T06:45:01.410Z,13.30
2022-09-23T06:45:56.615Z,13.38
2022-09-23T06:46:57.436Z,13.42
2022-09-23T06:47:56.627Z,13.41
2022-09-23T06:49:01.124Z,13.30
2022-09-23T06:52:46.506Z,13.49
2022-09-23T06:55:47.419Z,13.45
2022-09-23T06:56:50.285Z,13.46
2022-09-23T06:57:46.922Z,13.46
2022-09-23T07:22:02.243Z,14.04
2022-09-23T07:22:46.305Z,14.09
2022-09-23T07:28:45.950Z,14.24
2022-09-23T07:40:05.529Z,14.42
2022-09-23T07:47:51.903Z,14.64
2022-09-23T07:48:46.541Z,14.65
2022-09-23T07:50:50.652Z,14.77
2022-09-23T07:56:09.132Z,14.91
2022-09-23T08:05:05.670Z,14.95
2022-09-23T08:05:45.819Z,15.01
2022-09-23T08:06:47.542Z,15.02
2022-09-23T08:23:31.083Z,15.31
2022-09-23T08:24:30.797Z,15.35
2022-09-23T08:25:38.831Z,15.41
2022-09-23T08:26:31.534Z,15.50
2022-09-23T08:30:21.660Z,15.53
2022-09-23T08:31:27.626Z,15.43
2022-09-23T08:32:27.099Z,15.43
2022-09-23T08:33:23.091Z,15.46
2022-09-23T08:39:44.965Z,15.62
2022-09-23T08:42:02.005Z,15.87
2022-09-23T08:42:56.004Z,15.96
2022-09-23T08:43:57.053Z,16.01
2022-09-23T08:46:30.809Z,16.12
2022-09-23T08:47:08.550Z,16.11
2022-09-23T08:48:13.129Z,16.17
2022-09-23T08:49:06.142Z,16.15
2022-09-23T08:50:30.691Z,16.23
2022-09-23T09:07:47.678Z,17.07
2022-09-23T09:09:02.370Z,17.11
2022-09-23T09:09:39.138Z,17.12
2022-09-23T09:10:38.969Z,17.00
2022-09-23T09:11:38.158Z,16.97
2022-09-23T09:12:39.988Z,16.98
2022-09-23T09:13:44.108Z,16.93
2022-09-23T09:14:42.508Z,17.06
2022-09-23T09:15:41.254Z,16.96
2022-09-23T09:16:58.961Z,16.89
2022-09-23T09:17:40.041Z,16.94
2022-09-23T09:18:41.440Z,17.16
2022-09-23T09:19:47.612Z,17.22
2022-09-23T09:20:38.043Z,17.34
2022-09-23T09:21:40.809Z,17.43
2022-09-23T09:22:59.032Z,17.41
2022-09-23T09:23:38.030Z,17.51
2022-09-23T09:24:38.022Z,17.34
2022-09-23T09:25:38.009Z,17.28
2022-09-23T09:26:40.654Z,17.41
2022-09-23T09:27:39.023Z,17.49
2022-09-23T09:45:01.789Z,17.81
2022-09-23T09:45:57.261Z,17.95
2022-09-23T09:46:59.686Z,18.05
2022-09-23T09:47:51.803Z,18.03
2022-09-23T09:48:53.070Z,18.07
2022-09-23T09:49:51.757Z,18.05
2022-09-23T09:50:51.743Z,18.02
2022-09-23T09:51:51.748Z,18.15
2022-09-23T09:52:51.679Z,18.26
2022-09-23T09:53:51.650Z,18.26
2022-09-23T09:54:51.658Z,18.35
2022-09-23T09:55:51.669Z,18.23
2022-09-23T09:56:56.539Z,18.02
2022-09-23T09:57:51.630Z,18.03
2022-09-23T09:58:54.662Z,18.20
2022-09-23T09:59:51.640Z,18.23
2022-09-23T10:00:52.396Z,18.20
2022-09-23T10:01:51.620Z,18.20
2022-09-23T10:02:51.597Z,18.39
2022-09-23T10:03:59.228Z,18.42
2022-09-23T10:04:51.624Z,18.36
2022-09-23T10:05:51.558Z,18.45
2022-09-23T10:06:54.821Z,18.44
2022-09-23T10:07:51.542Z,18.44
2022-09-23T10:08:51.516Z,18.42
2022-09-23T10:14:39.787Z,18.76
2022-09-23T10:18:18.337Z,18.85
2022-09-23T10:32:31.126Z,18.92
2022-09-23T10:33:29.723Z,19.02
2022-09-23T10:34:35.432Z,18.99
2022-09-23T10:36:56.970Z,19.25
2022-09-23T10:39:51.977Z,19.44
2022-09-23T10:44:16.933Z,19.96
2022-09-23T10:45:39.734Z,20.06
2022-09-23T10:46:40.156Z,20.13
2022-09-23T10:47:46.044Z,20.06
2022-09-23T10:48:47.131Z,20.29
2022-09-23T10:49:13.878Z,20.38
2022-09-23T10:50:11.137Z,20.28
2022-09-23T10:51:26.061Z,20.28
2022-09-23T10:52:15.519Z,20.06
2022-09-23T10:53:32.667Z,20.06
2022-09-23T11:00:17.871Z,20.87
2022-09-23T11:01:15.853Z,20.77
2022-09-23T11:02:23.913Z,20.88
2022-09-23T11:03:42.956Z,20.91
2022-09-23T11:04:16.748Z,21.01
2022-09-23T11:05:16.751Z,20.91
2022-09-23T11:06:37.160Z,20.98
2022-09-23T11:07:14.941Z,21.07
2022-09-23T11:08:16.624Z,21.09
2022-09-23T11:09:14.899Z,21.25
2022-09-23T11:10:29.083Z,21.17
2022-09-23T11:11:16.690Z,21.17
2022-09-23T11:12:14.851Z,21.24
2022-09-23T11:13:15.808Z,21.47
2022-09-23T11:28:42.998Z,22.22
2022-09-23T11:29:16.433Z,22.36
2022-09-23T11:30:21.704Z,22.39
2022-09-23T11:31:16.058Z,22.27
2022-09-23T11:32:09.835Z,22.06
2022-09-23T11:33:10.591Z,22.05
2022-09-23T11:34:10.617Z,21.99
2022-09-23T11:35:09.757Z,21.84
2022-09-23T11:36:09.785Z,21.90
2022-09-23T11:37:09.726Z,21.86
2022-09-23T11:38:10.529Z,21.75
2022-09-23T11:39:10.516Z,21.75
2022-09-23T11:40:10.525Z,21.64
2022-09-23T11:41:11.291Z,21.35
2022-09-23T11:42:09.672Z,21.42
2022-09-23T11:43:09.652Z,21.31
2022-09-23T11:44:09.676Z,21.28
2022-09-23T11:45:10.443Z,21.12
2022-09-23T11:46:12.432Z,20.95
2022-09-23T11:47:09.605Z,20.94
2022-09-23T11:48:10.403Z,21.09
2022-09-23T11:49:09.603Z,21.09
2022-09-23T11:50:09.594Z,21.13
2022-09-23T11:51:09.586Z,21.21
2022-09-23T11:52:11.465Z,21.28
2022-09-23T11:53:10.366Z,21.12
2022-09-23T11:54:09.542Z,21.03
2022-09-23T11:55:19.267Z,21.03
2022-09-23T11:56:20.223Z,20.98
2022-09-23T11:57:10.521Z,21.03
2022-09-23T11:58:21.118Z,21.07
2022-09-23T11:59:11.622Z,21.03
2022-09-23T12:00:09.459Z,21.10
2022-09-23T12:01:09.575Z,21.27
2022-09-23T12:02:32.142Z,21.24
2022-09-23T12:03:09.581Z,21.43
2022-09-23T12:04:19.049Z,21.42
2022-09-23T12:05:10.492Z,21.47
2022-09-23T12:06:09.427Z,21.50
2022-09-23T12:07:10.192Z,21.59
2022-09-23T12:08:09.395Z,21.28
2022-09-23T12:09:09.415Z,21.14
2022-09-23T12:10:09.363Z,21.10
2022-09-23T12:11:10.153Z,21.25
2022-09-23T12:12:09.323Z,21.42
2022-09-23T12:13:09.324Z,21.44
2022-09-23T12:14:09.325Z,21.35
2022-09-23T12:15:10.044Z,21.38
2022-09-23T12:16:09.277Z,21.53
2022-09-23T12:17:10.095Z,21.71
2022-09-23T12:18:09.266Z,21.62
2022-09-23T12:19:09.257Z,21.49
2022-09-23T12:20:09.272Z,21.44
2022-09-23T12:21:18.177Z,21.69
2022-09-23T12:23:30.102Z,22.25
2022-09-23T12:24:28.829Z,22.31
2022-09-23T12:25:30.785Z,22.42
2022-09-23T12:26:27.970Z,22.79
2022-09-23T12:28:46.950Z,23.25
2022-09-23T12:29:46.761Z,23.33
2022-09-23T12:32:05.836Z,22.75
2022-09-23T12:34:24.881Z,22.64
2022-09-23T12:35:24.491Z,22.47
2022-09-23T12:36:24.429Z,22.57
2022-09-23T12:37:24.391Z,22.52
2022-09-23T12:38:24.429Z,22.65
2022-09-23T12:39:24.547Z,22.88
2022-09-23T12:40:26.174Z,22.92
2022-09-23T12:41:25.134Z,23.17
2022-09-23T12:42:30.877Z,23.31
2022-09-23T12:43:24.316Z,23.63
2022-09-23T12:44:25.256Z,23.60
2022-09-23T12:45:24.317Z,23.50
2022-09-23T12:46:24.349Z,23.20
2022-09-23T12:47:25.068Z,22.86
2022-09-23T12:48:24.247Z,22.72
2022-09-23T12:49:24.239Z,22.45
2022-09-23T12:50:24.620Z,22.10
2022-09-23T12:51:24.241Z,21.94
2022-09-23T12:52:24.214Z,21.83
2022-09-23T12:53:26.112Z,21.91
2022-09-23T12:54:24.971Z,21.86
2022-09-23T12:55:24.222Z,21.77
2022-09-23T12:56:24.172Z,21.71
2022-09-23T12:57:24.173Z,21.53
2022-09-23T12:58:24.163Z,21.56
2022-09-23T12:59:24.155Z,21.68
2022-09-23T13:00:25.081Z,21.59
2022-09-23T13:01:24.250Z,21.50
2022-09-23T13:02:26.157Z,21.43
2022-09-23T13:03:24.125Z,21.34
2022-09-23T13:04:24.899Z,21.29
2022-09-23T13:05:24.865Z,21.19
2022-09-23T13:06:24.087Z,21.31
2022-09-23T13:07:24.057Z,21.40
2022-09-23T13:08:24.057Z,21.44
2022-09-23T13:09:24.027Z,21.62
2022-09-23T13:10:24.017Z,21.64
2022-09-23T13:11:24.819Z,21.58
2022-09-23T13:12:23.999Z,21.56
2022-09-23T13:13:27.368Z,21.64
2022-09-23T13:14:27.552Z,21.72
2022-09-23T13:15:23.988Z,21.74
2022-09-23T13:16:24.815Z,21.82
2022-09-23T13:17:23.941Z,21.84
2022-09-23T13:18:23.943Z,21.88
2022-09-23T13:19:23.923Z,21.84
2022-09-23T13:20:24.721Z,21.79
2022-09-23T13:21:24.551Z,21.75
2022-09-23T13:22:24.694Z,21.88
2022-09-23T13:23:24.696Z,21.84
2022-09-23T13:24:23.874Z,21.72
2022-09-23T13:25:23.882Z,21.52
2022-09-23T13:26:24.657Z,21.61
2022-09-23T13:27:26.462Z,21.65
2022-09-23T13:28:23.812Z,21.71
2022-09-23T13:29:23.831Z,21.64
2022-09-23T13:30:26.346Z,21.56
2022-09-23T13:31:23.838Z,21.49
2022-09-23T13:32:23.794Z,21.42
2022-09-23T13:33:23.777Z,21.43
2022-09-23T13:34:24.558Z,21.25
2022-09-23T13:35:23.755Z,21.32
2022-09-23T13:36:23.736Z,21.29
2022-09-23T13:37:23.758Z,21.19
2022-09-23T13:38:24.518Z,21.16
2022-09-23T13:39:23.679Z,21.12
2022-09-23T13:40:24.536Z,21.12
2022-09-23T13:41:24.488Z,21.10
2022-09-23T13:42:23.660Z,21.01
2022-09-23T13:43:23.659Z,21.06
2022-09-23T13:44:23.647Z,20.99
2022-09-23T13:45:25.543Z,20.99
2022-09-23T13:46:28.310Z,20.95
2022-09-23T13:48:42.756Z,21.04
2022-09-23T13:50:11.794Z,21.12
2022-09-23T13:52:01.537Z,21.07
2022-09-23T13:53:10.751Z,21.16
2022-09-23T13:54:01.490Z,21.25
2022-09-23T13:55:01.317Z,21.31
2022-09-23T13:56:01.322Z,21.31
2022-09-23T13:57:02.228Z,21.29
2022-09-23T13:58:01.274Z,21.27
2022-09-23T13:59:01.327Z,21.09
2022-09-23T14:00:01.272Z,21.07
2022-09-23T14:01:01.287Z,21.17
2022-09-23T14:02:02.112Z,21.21
2022-09-23T14:03:02.003Z,21.22
2022-09-23T14:04:01.253Z,21.28
2022-09-23T14:05:01.185Z,21.27
2022-09-23T14:06:01.958Z,21.32
2022-09-23T14:07:02.084Z,21.40
2022-09-23T14:08:01.935Z,21.32
2022-09-23T14:09:01.135Z,21.27
2022-09-23T14:10:01.175Z,21.27
2022-09-23T14:11:01.108Z,21.27
2022-09-23T14:12:02.036Z,21.07
2022-09-23T14:13:01.066Z,21.06
2022-09-23T14:14:01.935Z,21.06
2022-09-23T14:15:02.033Z,20.98
2022-09-23T14:16:01.081Z,20.87
2022-09-23T14:17:01.050Z,20.73
2022-09-23T14:18:01.049Z,20.67
2022-09-23T14:19:00.999Z,20.64
2022-09-23T14:20:01.037Z,20.61
2022-09-23T14:21:01.789Z,20.67
2022-09-23T14:22:01.005Z,20.64
2022-09-23T14:23:03.581Z,20.67
2022-09-23T14:24:00.940Z,20.72
2022-09-23T14:25:00.949Z,20.66
2022-09-23T14:26:00.934Z,20.51
2022-09-23T14:27:00.933Z,20.42
2022-09-23T14:28:00.923Z,20.41
2022-09-23T14:29:00.921Z,20.47
2022-09-23T14:30:00.942Z,20.59
2022-09-23T14:31:00.888Z,20.61
2022-09-23T14:32:02.210Z,20.62
2022-09-23T14:33:03.426Z,20.59
2022-09-23T14:34:00.898Z,20.54
2022-09-23T14:35:00.842Z,20.58
2022-09-23T14:36:00.836Z,20.57
2022-09-23T14:37:01.626Z,20.55
2022-09-23T14:38:00.817Z,20.50
2022-09-23T14:39:00.818Z,20.51
2022-09-23T14:40:01.565Z,20.50
2022-09-23T14:41:01.689Z,20.47
2022-09-23T14:42:01.559Z,20.42
2022-09-23T14:43:00.771Z,20.42
2022-09-23T14:44:11.100Z,20.38
2022-09-23T14:45:00.847Z,20.32
2022-09-23T14:47:24.693Z,20.28
2022-09-23T14:48:20.697Z,20.18
2022-09-23T14:49:18.851Z,20.10
2022-09-23T14:50:19.596Z,20.11
2022-09-23T14:51:18.658Z,20.10
2022-09-23T14:52:18.633Z,20.11
2022-09-23T14:53:18.629Z,20.11
2022-09-23T14:54:18.640Z,20.14
2022-09-23T14:55:18.598Z,20.17
2022-09-23T14:56:19.568Z,20.18
2022-09-23T14:57:19.519Z,20.18
2022-09-23T14:58:21.200Z,20.21
2022-09-23T14:59:18.599Z,20.23
2022-09-23T15:00:18.551Z,20.20
2022-09-23T15:01:20.238Z,20.26
2022-09-23T15:02:26.970Z,20.23
2022-09-23T15:03:19.461Z,20.20
2022-09-23T15:04:18.742Z,20.20
2022-09-23T15:05:27.820Z,20.23
2022-09-23T15:06:26.395Z,20.24
2022-09-23T15:07:18.629Z,20.20
2022-09-23T15:09:49.889Z,20.10
2022-09-23T15:12:09.061Z,19.99
2022-09-23T15:13:16.508Z,19.98
2022-09-23T15:14:26.396Z,19.99
2022-09-23T15:15:09.996Z,20.03
2022-09-23T15:16:07.178Z,20.06
2022-09-23T15:18:26.105Z,20.06
2022-09-23T15:20:44.980Z,19.87
2022-09-23T15:21:47.137Z,19.86
2022-09-23T15:23:14.435Z,19.88
2022-09-23T15:23:44.769Z,19.94
2022-09-23T15:24:53.120Z,19.94
2022-09-23T15:25:45.486Z,19.94
2022-09-23T15:26:54.254Z,19.91
2022-09-23T15:30:17.869Z,19.86
2022-09-23T15:31:17.651Z,19.84
2022-09-23T15:32:17.591Z,19.80
2022-09-23T15:33:18.736Z,19.83
2022-09-23T15:34:16.652Z,19.74
2022-09-23T15:35:16.669Z,19.80
2022-09-23T15:36:16.635Z,19.81
2022-09-23T15:37:16.642Z,19.78
2022-09-23T15:38:17.604Z,19.77
2022-09-23T15:39:16.598Z,19.78
2022-09-23T15:40:24.064Z,19.76
2022-09-23T15:41:26.723Z,19.76
2022-09-23T15:42:17.424Z,19.74
2022-09-23T15:44:37.124Z,19.76
2022-09-23T15:45:35.389Z,19.76
2022-09-23T15:46:37.297Z,19.73
2022-09-23T15:47:35.298Z,19.71
2022-09-23T15:48:35.311Z,19.74
2022-09-23T15:49:37.070Z,19.77
2022-09-23T15:50:38.568Z,19.76
2022-09-23T15:51:35.259Z,19.74
2022-09-23T15:52:36.048Z,19.74
2022-09-23T15:53:35.231Z,19.68
2022-09-23T15:54:36.020Z,19.63
2022-09-23T15:55:35.210Z,19.59
2022-09-23T15:56:35.211Z,19.56
2022-09-23T15:57:35.199Z,19.48
2022-09-23T15:58:37.842Z,19.48
2022-09-23T15:59:35.192Z,19.44
2022-09-23T16:00:36.047Z,19.43
2022-09-23T16:01:35.207Z,19.46
2022-09-23T16:02:35.944Z,19.41
2022-09-23T16:03:35.142Z,19.41
2022-09-23T16:04:48.105Z,19.39
2022-09-23T16:05:40.856Z,19.36
2022-09-23T16:06:37.055Z,19.31
2022-09-23T16:07:35.895Z,19.28
2022-09-23T16:08:37.023Z,19.28
2022-09-23T16:09:35.106Z,19.21
2022-09-23T16:10:38.902Z,19.16
2022-09-23T16:11:35.844Z,19.11
2022-09-23T16:12:35.094Z,19.11
2022-09-23T16:13:38.431Z,19.07